Aviation Digital Data Service (ADDS)

Output produced by METARs form (2303 UTC 23 October 2019)
found at http://www.aviationweather.gov/metar/data/
 
Forecast for: AGGK (KIRAKIRA , SB)
Text: TAF AGGK 231710Z 2318/2418 05015KT 9999 SCT017 SCT030
Forecast period: 1800 UTC 23 October 2019 to 1800 UTC 24 October 2019
Forecast type: FROM: standard forecast or significant change
Winds: from the NE (50 degrees) at 17 MPH (15 knots; 7.7 m/s)
Visibility: 6 or more miles 10+ km)
Ceiling: at least 12,000 feet AGL
Clouds: scattered clouds at 1700 feet AGL
scattered clouds at 3000 feet AGL
Weather: no significant weather forecast for this period
Text: PROB40 INTER 2318/2400 5000 TSSH BKN015 FEW016CB
Forecast period: 1800 UTC 23 October 2019 to 0000 UTC 24 October 2019
Forecast type: TEMPORARY: The following changes expected for less than half the time period
Visibility: 3 miles (5 km)
Ceiling: 1500 feet AGL
Clouds: broken clouds at 1500 feet AGL
few clouds at 1600 feet AGL
Weather: SH TS  (showers, thunderstorm)